Sunny Side, Texas
Current Conditions -  °F | °C
As of 2:53 PM on Tuesday 27 Jan 2015 (Local Time) from KSGR Reporting Station
Clear Clear  
Wind Chill: 26°   Ceiling: Unl
Heat Index: 26°   Visibility: 10mi
Dew Point:   Wind: 8mph
Humidity: 30%   Direction: 310°NW
Pressure: 30.1"   Gusts: NA
Location:  29.8217°N, 95.9894°W
Report Text: KSGR 272053Z 31007KT 10SM CLR 26/07 A3010 RMK AO2 SLP194 T02560067 58008
Loading
Personal Weather Stations






























Interactive Weather Map New forecast layout! Learn more

10-Day Weather Forecast

Advertisements
Track Severe Weather on mobile